Time;durP1;ratioP1;P1;durP2;ratioP2;P2;SDS_P1;SDS_P2;PMS_P1;PMS_P2;Temp;Humidity;BMP_temperature;BMP_pressure;BME280_temperature;BME280_humidity;BME280_pressure;Samples;Min_cycle;Max_cycle;Signal;HPM_P1;HPM_P2
2022/04/22 00:00:22;;;;;;;14.73;10.02;;;;;;;10.50;83.27;67943.06;5012967;28;20060;-81
2022/04/22 00:02:47;;;;;;;16.30;10.35;;;;;;;10.45;83.57;67934.16;5028396;28;20065;-81
2022/04/22 00:05:13;;;;;;;11.52;8.77;;;;;;;10.38;83.98;67932.09;5031689;28;20405;-81
2022/04/22 00:07:38;;;;;;;14.10;10.23;;;;;;;10.38;83.96;67926.75;5038188;28;20102;-81
2022/04/22 00:10:05;;;;;;;14.32;9.85;;;;;;;10.33;84.35;67923.78;5010391;28;20041;-81
2022/04/22 00:12:31;;;;;;;13.88;8.88;;;;;;;10.27;84.85;67920.19;5039819;28;20549;-81
2022/04/22 00:14:56;;;;;;;15.18;9.75;;;;;;;10.20;85.35;67906.91;5052135;28;20037;-81
2022/04/22 00:17:21;;;;;;;14.27;10.02;;;;;;;10.23;84.74;67912.97;5054655;28;20637;-81
2022/04/22 00:19:47;;;;;;;15.18;10.35;;;;;;;10.20;85.06;67906.31;5052537;28;20432;-81
2022/04/22 00:22:12;;;;;;;14.98;10.52;;;;;;;10.17;85.08;67904.06;5034929;28;20397;-81
2022/04/22 00:24:37;;;;;;;14.95;10.02;;;;;;;10.16;84.86;67905.03;5039948;28;20079;-83
2022/04/22 00:27:03;;;;;;;14.52;10.02;;;;;;;9.99;86.14;67883.66;5046190;28;20107;-82
2022/04/22 00:29:28;;;;;;;13.20;10.68;;;;;;;10.04;85.92;67891.41;5043204;28;20041;-82
2022/04/22 00:31:54;;;;;;;16.42;10.35;;;;;;;9.87;86.91;67870.03;5039644;28;20100;-83
2022/04/22 00:34:19;;;;;;;15.00;9.43;;;;;;;;;;5022552;28;20042;-82
2022/04/22 00:36:44;;;;;;;15.73;10.32;;;;;;;9.90;86.60;67879.31;5016201;28;20034;-82
2022/04/22 00:39:10;;;;;;;14.98;10.43;;;;;;;9.99;86.17;67886.31;5026416;28;20104;-82
2022/04/22 00:41:35;;;;;;;15.13;9.77;;;;;;;10.03;85.95;67896.16;5045429;28;20037;-82
2022/04/22 00:44:00;;;;;;;14.95;9.40;;;;;;;9.86;86.57;67869.47;5025634;28;20189;-83
2022/04/22 00:46:26;;;;;;;15.73;9.70;;;;;;;9.79;87.47;67866.84;5053505;28;20065;-82
2022/04/22 00:48:51;;;;;;;14.73;9.63;;;;;;;9.78;87.33;67865.72;5055205;28;20045;-83
2022/04/22 00:51:18;;;;;;;15.05;10.73;;;;;;;9.81;87.02;67863.81;5043205;28;20037;-82
2022/04/22 00:53:46;;;;;;;15.55;10.00;;;;;;;9.79;87.43;67863.63;5023354;28;20674;-82
2022/04/22 00:56:12;;;;;;;15.52;9.73;;;;;;;9.80;87.32;67864.75;5036156;28;20104;-83
2022/04/22 00:58:40;;;;;;;16.27;10.77;;;;;;;9.77;87.39;67864.00;5040487;28;20095;-83
2022/04/22 01:01:06;;;;;;;15.48;10.23;;;;;;;9.81;86.96;67866.47;5025724;28;20161;-83
2022/04/22 01:03:31;;;;;;;15.52;10.27;;;;;;;;;;5047665;28;20381;-83
2022/04/22 01:11:32;;;;;;;14.63;10.75;;;;;;;9.68;87.79;67849.63;5018032;28;20060;-83
2022/04/22 01:13:59;;;;;;;14.65;9.98;;;;;;;9.59;88.34;67842.06;5033644;28;20623;-83
2022/04/22 01:16:25;;;;;;;14.23;10.20;;;;;;;;;;5013796;28;20504;-83
2022/04/22 01:18:51;;;;;;;16.80;10.85;;;;;;;9.46;89.67;67827.31;5038322;28;20041;-83
2022/04/22 01:21:17;;;;;;;14.80;10.55;;;;;;;9.49;89.57;67828.06;5023335;28;20886;-82
2022/04/22 01:23:42;;;;;;;16.23;9.88;;;;;;;9.44;90.15;67825.63;5022819;28;20052;-82
2022/04/22 01:26:08;;;;;;;15.40;9.55;;;;;;;9.42;90.51;67825.44;5023603;28;21071;-82
2022/04/22 01:28:34;;;;;;;15.55;10.10;;;;;;;9.37;90.62;67817.13;5030056;28;20041;-83
2022/04/22 01:31:00;;;;;;;14.52;11.68;;;;;;;9.45;89.96;67828.84;5025593;28;20514;-82
2022/04/22 01:33:25;;;;;;;17.23;10.75;;;;;;;9.47;90.11;67828.47;5030524;28;20038;-83
2022/04/22 01:35:51;;;;;;;15.30;10.85;;;;;;;9.43;90.13;67821.81;5009080;28;20455;-83
2022/04/22 01:38:16;;;;;;;14.65;11.90;;;;;;;9.42;90.47;67820.13;5027351;28;20775;-83
2022/04/22 01:40:42;;;;;;;15.95;11.48;;;;;;;9.39;90.67;67817.31;5024309;28;20077;-83
2022/04/22 01:43:08;;;;;;;14.48;11.20;;;;;;;9.38;91.14;67816.19;5026791;28;20045;-83
2022/04/22 01:45:33;;;;;;;19.85;11.45;;;;;;;9.36;91.56;67816.00;5027834;28;20125;-83
2022/04/22 01:47:59;;;;;;;16.40;11.35;;;;;;;9.33;91.93;67815.25;5007982;28;20053;-83
2022/04/22 01:50:24;;;;;;;16.35;12.50;;;;;;;9.35;92.49;67814.84;5031656;28;20037;-83
2022/04/22 01:52:49;;;;;;;17.35;11.32;;;;;;;;;;5020784;28;20038;-83
2022/04/22 01:55:15;;;;;;;18.80;11.43;;;;;;;9.26;94.07;67807.88;5027684;28;20671;-83
2022/04/22 01:57:41;;;;;;;17.08;12.93;;;;;;;9.29;94.32;67811.25;5025203;28;20084;-82
2022/04/22 02:00:08;;;;;;;17.58;12.48;;;;;;;9.25;94.91;67801.44;5016494;28;20037;-82
2022/04/22 02:02:33;;;;;;;19.85;14.07;;;;;;;9.27;95.06;67803.69;5027339;28;20069;-82
2022/04/22 02:04:59;;;;;;;19.15;14.48;;;;;;;;;;5029270;28;20397;-83
2022/04/22 02:07:24;;;;;;;20.85;15.60;;;;;;;9.23;96.43;67801.81;5026124;28;20064;-82
2022/04/22 02:09:49;;;;;;;22.25;16.23;;;;;;;9.19;97.11;67800.50;5010932;28;20041;-82
2022/04/22 02:12:15;;;;;;;22.33;16.67;;;;;;;9.20;97.61;67801.06;5021432;28;20101;-82
2022/04/22 02:14:40;;;;;;;23.20;18.52;;;;;;;9.21;97.47;67797.47;5028731;28;20100;-82
2022/04/22 02:17:06;;;;;;;24.35;17.25;;;;;;;9.18;98.06;67799.38;5036268;28;20807;-82
2022/04/22 02:19:31;;;;;;;24.50;17.38;;;;;;;9.18;98.63;67793.50;5033610;28;20052;-82
2022/04/22 02:21:57;;;;;;;22.17;18.33;;;;;;;9.17;99.57;67792.34;5009383;28;20305;-83
2022/04/22 02:24:23;;;;;;;23.30;17.50;;;;;;;9.14;100.00;67791.63;5019119;28;20054;-81
2022/04/22 02:29:32;;;;;;;26.30;19.48;;;;;;;9.15;100.00;67792.75;5025538;28;20049;-82
2022/04/22 02:31:57;;;;;;;24.38;17.83;;;;;;;9.09;100.00;67786.53;5023620;28;20038;-81
2022/04/22 02:34:23;;;;;;;25.10;18.73;;;;;;;9.00;100.00;67773.66;5019070;28;20045;-82
2022/04/22 02:36:50;;;;;;;22.80;17.92;;;;;;;9.04;100.00;67778.19;5032246;28;20284;-82
2022/04/22 02:39:17;;;;;;;26.30;18.08;;;;;;;8.98;100.00;67776.72;5023465;28;20049;-82
2022/04/22 02:47:11;;;;;;;26.85;21.23;;;;;;;8.93;100.00;67768.38;5022533;28;20502;-83
2022/04/22 02:49:36;;;;;;;28.85;20.13;;;;;;;8.94;100.00;67766.84;5023606;28;20050;-83
2022/04/22 02:52:01;;;;;;;26.00;20.30;;;;;;;8.93;100.00;67771.59;5025161;28;20044;-83
2022/04/22 02:54:30;;;;;;;27.73;20.23;;;;;;;8.87;100.00;67764.25;5029582;28;20060;-83
2022/04/22 02:56:56;;;;;;;27.40;17.80;;;;;;;8.79;100.00;67756.31;5028131;28;20481;-83
2022/04/22 02:59:22;;;;;;;25.70;19.38;;;;;;;8.81;100.00;67758.56;5028370;28;20049;-83
2022/04/22 03:01:48;;;;;;;25.10;18.92;;;;;;;8.74;100.00;67750.06;5029702;28;20190;-83
2022/04/22 03:04:15;;;;;;;31.85;21.48;;;;;;;8.81;100.00;67758.56;5026097;28;20510;-83
2022/04/22 03:06:41;;;;;;;27.63;21.40;;;;;;;8.84;100.00;67756.09;5027413;28;20038;-83
2022/04/22 03:09:06;;;;;;;28.83;22.38;;;;;;;8.80;100.00;67752.13;5003624;28;20544;-82
2022/04/22 03:11:31;;;;;;;28.17;20.88;;;;;;;8.76;100.00;67752.34;5023237;28;20099;-83
2022/04/22 03:13:57;;;;;;;26.17;20.45;;;;;;;8.71;100.00;67741.34;5023367;28;20042;-82
2022/04/22 03:16:25;;;;;;;30.55;22.40;;;;;;;;;;5023938;28;20040;-82
2022/04/22 03:18:51;;;;;;;33.53;21.90;;;;;;;8.67;100.00;67742.72;5020929;28;20053;-82
2022/04/22 03:21:17;;;;;;;33.00;22.02;;;;;;;8.53;100.00;67721.53;5027742;28;20055;-82
2022/04/22 03:23:42;;;;;;;30.42;18.88;;;;;;;8.49;100.00;67722.88;5019207;28;20120;-82
2022/04/22 03:26:08;;;;;;;28.05;22.08;;;;;;;8.56;100.00;67727.59;5025131;28;20104;-83
2022/04/22 03:28:33;;;;;;;31.67;21.77;;;;;;;8.56;100.00;67730.25;5026591;28;20498;-83
2022/04/22 03:30:58;;;;;;;30.00;21.85;;;;;;;8.56;100.00;67724.94;5027864;28;20528;-83
2022/04/22 03:33:24;;;;;;;30.98;22.52;;;;;;;8.55;100.00;67729.13;5030673;28;20088;-83
2022/04/22 03:35:50;;;;;;;31.15;22.42;;;;;;;8.52;100.00;67723.63;5029550;28;20029;-82
2022/04/22 03:38:16;;;;;;;28.10;21.25;;;;;;;8.54;100.00;67722.66;5027561;28;21849;-83
2022/04/22 03:40:42;;;;;;;29.40;23.90;;;;;;;8.55;100.00;67729.13;5026816;28;20042;-82
2022/04/22 03:43:07;;;;;;;29.52;24.48;;;;;;;8.59;100.00;67731.56;5025975;28;20047;-83
2022/04/22 03:45:33;;;;;;;33.47;25.17;;;;;;;8.54;100.00;67728.53;5029826;28;20045;-82
2022/04/22 03:47:59;;;;;;;30.92;24.77;;;;;;;8.56;100.00;67732.91;5026377;28;20054;-83
2022/04/22 03:50:28;;;;;;;30.92;22.58;;;;;;;8.54;100.00;67722.66;5027342;28;20037;-83
2022/04/22 03:52:54;;;;;;;31.45;24.23;;;;;;;8.56;100.00;67730.81;5025872;28;20097;-83
2022/04/22 03:55:20;;;;;;;33.35;24.77;;;;;;;8.55;100.00;67729.13;5012512;28;20132;-82
2022/04/22 04:00:29;;;;;;;31.90;25.05;;;;;;;8.48;100.00;67721.75;5031002;28;20083;-83
2022/04/22 04:02:55;;;;;;;31.33;26.17;;;;;;;8.44;100.00;67716.66;5028522;28;20045;-83
2022/04/22 04:05:20;;;;;;;37.33;26.10;;;;;;;8.42;100.00;67714.38;5023348;28;20493;-83
2022/04/22 04:07:46;;;;;;;32.08;24.27;;;;;;;8.41;100.00;67713.25;5032376;28;20048;-82
2022/04/22 04:15:58;;;;;;;33.22;27.00;;;;;;;8.29;100.00;67698.13;5026795;28;20188;-82
2022/04/22 04:18:34;;;;;;;31.33;23.08;;;;;;;8.22;100.00;67692.25;4991711;28;20069;-83
2022/04/22 04:23:46;;;;;;;31.83;25.48;;;;;;;8.32;100.00;67704.16;5029983;28;20072;-83
2022/04/22 04:26:12;;;;;;;32.80;25.50;;;;;;;8.36;100.00;67708.69;5036990;28;20077;-83
2022/04/22 04:28:38;;;;;;;34.35;26.48;;;;;;;8.37;100.00;67706.59;5012716;28;20052;-83
2022/04/22 04:31:06;;;;;;;32.88;24.23;;;;;;;8.40;100.00;67712.69;5030894;28;20037;-83
2022/04/22 04:33:32;;;;;;;30.95;22.08;;;;;;;8.42;100.00;67711.72;5041744;28;20037;-83
2022/04/22 04:35:58;;;;;;;31.58;24.55;;;;;;;8.42;100.00;67714.94;5041408;28;20094;-83
2022/04/22 04:38:25;;;;;;;33.40;24.30;;;;;;;8.45;100.00;67717.78;5046504;28;20033;-83
2022/04/22 04:40:51;;;;;;;34.65;25.60;;;;;;;8.48;100.00;67715.88;5037013;28;20067;-83
2022/04/22 04:43:18;;;;;;;33.28;25.77;;;;;;;8.48;100.00;67721.75;5034168;28;20480;-83
2022/04/22 04:45:44;;;;;;;34.17;26.40;;;;;;;8.52;100.00;67725.72;5041525;28;20041;-82
2022/04/22 04:48:09;;;;;;;34.47;26.90;;;;;;;8.55;100.00;67734.41;5014864;28;20041;-82
2022/04/22 04:50:35;;;;;;;32.50;26.23;;;;;;;8.55;100.00;67726.47;5035887;28;20052;-83
2022/04/22 04:53:00;;;;;;;35.15;24.58;;;;;;;8.51;100.00;67719.84;5022410;28;20045;-83
2022/04/22 04:55:26;;;;;;;31.38;26.23;;;;;;;8.54;100.00;67725.31;5034379;28;20045;-83
2022/04/22 04:57:51;;;;;;;36.28;27.67;;;;;;;8.57;100.00;67729.28;5036897;28;20648;-84
2022/04/22 05:00:20;;;;;;;32.67;24.98;;;;;;;8.50;100.00;67718.13;5033628;28;20132;-84
2022/04/22 05:02:46;;;;;;;36.42;23.10;;;;;;;8.50;100.00;67718.72;5045067;28;20462;-82
2022/04/22 05:05:12;;;;;;;33.28;25.67;;;;;;;8.56;100.00;67724.94;5040138;28;20126;-83
2022/04/22 05:07:55;;;;;;;34.47;26.30;;;;;;;8.57;100.00;67731.38;5023639;28;20407;-83
2022/04/22 05:10:20;;;;;;;34.55;24.55;;;;;;;8.57;100.00;67731.94;5032756;28;20128;-82
2022/04/22 05:12:49;;;;;;;34.55;28.50;;;;;;;8.59;100.00;67728.91;5038709;28;20034;-83
2022/04/22 05:15:17;;;;;;;31.55;26.60;;;;;;;8.64;100.00;67739.31;5017366;28;20040;-83
2022/04/22 05:17:42;;;;;;;35.30;27.23;;;;;;;8.66;100.00;67743.66;5049167;28;20044;-84
2022/04/22 05:20:10;;;;;;;33.15;27.80;;;;;;;8.65;100.00;67734.56;5024999;28;20082;-83
2022/04/22 05:22:36;;;;;;;35.75;24.48;;;;;;;8.64;100.00;67738.75;5046157;28;20045;-83
2022/04/22 05:25:01;;;;;;;33.83;26.58;;;;;;;8.66;100.00;67741.59;5033904;28;20037;-83
2022/04/22 05:27:27;;;;;;;35.15;25.92;;;;;;;8.68;100.00;67738.53;5049414;28;20040;-82
2022/04/22 05:32:39;;;;;;;34.25;25.33;;;;;;;8.66;100.00;67741.00;5057067;28;20072;-82
2022/04/22 05:35:05;;;;;;;31.50;24.30;;;;;;;8.65;100.00;67740.44;5031108;28;20041;-83
2022/04/22 05:37:46;;;;;;;35.22;28.15;;;;;;;8.70;100.00;67745.53;5050443;28;20635;-84
2022/04/22 05:40:12;;;;;;;35.42;27.30;;;;;;;;;;5043341;28;20037;-83
2022/04/22 05:42:38;;;;;;;33.95;24.67;;;;;;;8.68;100.00;67743.84;5026307;28;20047;-84
2022/04/22 05:45:08;;;;;;;34.53;27.73;;;;;;;8.69;100.00;67744.97;5041065;28;20354;-83
2022/04/22 05:47:34;;;;;;;34.67;27.52;;;;;;;8.72;100.00;67743.06;5048517;28;20107;-84
2022/04/22 05:50:00;;;;;;;35.70;28.70;;;;;;;8.77;100.00;67754.03;5033811;28;20041;-82
2022/04/22 05:52:26;;;;;;;34.70;23.52;;;;;;;8.78;100.00;67751.97;5045301;28;20048;-84
2022/04/22 05:54:51;;;;;;;36.03;27.73;;;;;;;8.78;100.00;67755.19;5041980;28;20405;-84
2022/04/22 05:57:17;;;;;;;36.15;26.67;;;;;;;8.87;100.00;67761.59;5026493;28;20053;-84
2022/04/22 05:59:42;;;;;;;33.83;27.40;;;;;;;8.90;100.00;67762.34;5026484;28;20072;-84
2022/04/22 06:02:08;;;;;;;34.10;24.05;;;;;;;8.97;100.00;67770.81;5056728;28;20041;-83
2022/04/22 06:04:33;;;;;;;34.38;27.95;;;;;;;9.02;100.00;67781.25;5063755;28;20033;-82
2022/04/22 06:06:59;;;;;;;33.55;24.27;;;;;;;8.98;100.00;67774.06;5047834;28;20040;-83
2022/04/22 06:12:09;;;;;;;30.10;21.75;;;;;;;9.18;100.00;67794.06;5036243;28;20040;-82
2022/04/22 06:14:34;;;;;;;32.85;21.88;;;;;;;9.19;100.00;67799.94;5018961;28;20068;-83
2022/04/22 06:17:00;;;;;;;31.17;24.00;;;;;;;9.33;100.00;67809.94;5030136;28;20062;-84
2022/04/22 06:19:25;;;;;;;28.65;21.77;;;;;;;9.37;100.00;67815.03;5029131;28;20045;-84
2022/04/22 06:21:50;;;;;;;29.00;21.52;;;;;;;9.46;100.00;67827.31;5010579;28;20030;-83
2022/04/22 06:24:28;;;;;;;28.52;23.15;;;;;;;9.50;100.00;67829.22;5028532;28;20042;-84
2022/04/22 06:26:53;;;;;;;28.25;22.13;;;;;;;9.48;100.00;67826.94;5028808;28;20120;-83
2022/04/22 06:29:19;;;;;;;27.77;20.35;;;;;;;9.51;100.00;67830.34;5030345;28;20052;-83
2022/04/22 06:31:44;;;;;;;27.30;19.42;;;;;;;9.54;100.00;67839.06;5008244;28;20057;-83
2022/04/22 06:34:10;;;;;;;29.58;22.52;;;;;;;9.57;100.00;67837.13;5035188;28;20121;-82
2022/04/22 06:36:35;;;;;;;29.30;21.63;;;;;;;9.66;100.00;67852.66;5031332;28;20451;-83
2022/04/22 06:39:01;;;;;;;28.73;22.10;;;;;;;9.74;100.00;67857.94;5031102;28;20198;-83
2022/04/22 06:46:57;;;;;;;26.83;22.27;;;;;;;9.67;99.88;67850.59;5056012;22;20402;-80
2022/04/22 06:49:25;;;;;;;28.67;22.17;;;;;;;9.60;100.00;67839.97;5031863;28;20033;-81
2022/04/22 06:51:51;;;;;;;28.17;19.60;;;;;;;9.63;100.00;67843.94;5030345;28;20044;-79
2022/04/22 06:54:17;;;;;;;28.33;21.15;;;;;;;9.65;99.94;67851.53;5028183;28;20045;-80
2022/04/22 06:56:44;;;;;;;26.70;18.67;;;;;;;9.63;100.00;67843.38;5047804;28;20100;-80
2022/04/22 06:59:10;;;;;;;26.55;18.40;;;;;;;9.65;100.00;67845.66;5044139;28;20071;-80
2022/04/22 07:01:36;;;;;;;25.40;18.63;;;;;;;9.71;100.00;67855.09;5045287;28;20551;-81
2022/04/22 07:04:02;;;;;;;28.42;19.88;;;;;;;9.77;99.64;67864.00;5052684;28;20036;-79
2022/04/22 07:06:29;;;;;;;24.55;19.30;;;;;;;9.79;98.78;67861.53;5052821;28;20068;-80
2022/04/22 07:08:58;;;;;;;27.90;18.75;;;;;;;9.87;98.73;67870.59;5054473;28;20036;-79
2022/04/22 07:11:26;;;;;;;23.58;18.42;;;;;;;9.92;97.51;67875.69;5053376;28;20044;-79
2022/04/22 07:13:55;;;;;;;26.27;16.77;;;;;;;9.93;98.47;67879.50;5049968;28;20041;-81
2022/04/22 07:16:21;;;;;;;21.60;16.70;;;;;;;9.90;97.76;67873.44;5046697;28;20128;-79
2022/04/22 07:18:47;;;;;;;24.73;18.65;;;;;;;9.98;96.88;67887.25;5050935;28;20064;-79
2022/04/22 07:21:13;;;;;;;22.13;17.83;;;;;;;10.06;96.81;67894.22;5049711;28;20051;-79
2022/04/22 07:23:39;;;;;;;23.27;16.88;;;;;;;10.09;96.40;67900.28;5033245;28;20041;-79
2022/04/22 07:26:09;;;;;;;24.08;17.35;;;;;;;10.12;97.30;67897.81;5042971;28;20037;-77
2022/04/22 07:28:34;;;;;;;22.08;16.63;;;;;;;10.22;96.40;67909.16;5053118;28;20033;-80
2022/04/22 07:31:01;;;;;;;25.08;16.00;;;;;;;10.27;97.33;67914.28;5032408;28;20094;-79
2022/04/22 07:33:27;;;;;;;23.58;16.63;;;;;;;10.39;95.38;67931.13;5050103;28;20280;-81
2022/04/22 07:35:52;;;;;;;20.95;16.00;;;;;;;10.38;94.30;67929.44;5031255;28;20040;-80
2022/04/22 07:38:18;;;;;;;21.50;16.15;;;;;;;10.42;94.07;67931.31;5049771;28;20053;-80
2022/04/22 07:40:48;;;;;;;20.60;14.98;;;;;;;10.45;93.08;67936.81;5048683;28;20099;-78
2022/04/22 07:48:42;;;;;;;20.38;13.77;;;;;;;10.50;93.07;67943.06;5054613;28;20056;-78
2022/04/22 07:51:08;;;;;;;19.23;14.05;;;;;;;10.50;92.41;67940.41;5044081;28;20032;-78
2022/04/22 07:53:35;;;;;;;18.90;14.05;;;;;;;10.50;92.29;67943.06;5044255;28;20041;-78
2022/04/22 07:56:02;;;;;;;19.52;12.48;;;;;;;10.50;92.46;67939.81;5039223;28;20439;-77
2022/04/22 07:58:27;;;;;;;17.40;10.77;;;;;;;10.50;91.61;67940.41;5042455;28;20045;-78
2022/04/22 08:00:52;;;;;;;17.33;11.70;;;;;;;10.65;92.21;67961.59;5041629;28;20704;-79
2022/04/22 08:03:18;;;;;;;18.20;10.52;;;;;;;10.66;90.63;67957.41;5040533;28;20099;-79
2022/04/22 08:05:43;;;;;;;16.00;10.13;;;;;;;10.74;90.62;67966.50;5044233;28;20476;-80
2022/04/22 08:08:09;;;;;;;19.30;10.57;;;;;;;10.81;89.97;67975.00;5046288;28;20037;-79
2022/04/22 08:10:35;;;;;;;17.48;10.68;;;;;;;10.94;89.60;67991.28;5047619;28;20037;-79
2022/04/22 08:13:02;;;;;;;14.90;10.05;;;;;;;11.04;88.21;67999.97;5047683;28;20542;-77
2022/04/22 08:15:29;;;;;;;14.02;10.10;;;;;;;11.09;87.44;68007.75;5025337;28;20508;-78
2022/04/22 08:17:54;;;;;;;16.00;9.68;;;;;;;11.19;88.10;68016.44;5045183;28;20071;-79
2022/04/22 08:20:20;;;;;;;13.60;8.52;;;;;;;11.36;88.58;68043.16;5029179;28;20037;-78
2022/04/22 08:22:45;;;;;;;13.38;9.23;;;;;;;11.42;85.83;68042.56;5043258;28;20391;-77
2022/04/22 08:25:12;;;;;;;12.63;9.65;;;;;;;11.51;85.62;68047.44;5021563;28;20042;-79
2022/04/22 08:27:37;;;;;;;15.85;9.50;;;;;;;11.69;86.17;68072.09;5047259;28;20055;-79
2022/04/22 08:30:03;;;;;;;14.93;9.02;;;;;;;11.76;84.29;68080.03;5045521;28;20424;-78
2022/04/22 08:32:28;;;;;;;13.35;8.43;;;;;;;11.90;83.96;68098.63;5048355;28;20052;-77
2022/04/22 08:34:54;;;;;;;16.05;9.13;;;;;;;12.05;83.71;68114.53;5047372;28;20033;-79
2022/04/22 08:37:19;;;;;;;13.38;8.63;;;;;;;12.15;82.36;68123.22;5043545;28;20518;-79
2022/04/22 08:39:44;;;;;;;12.65;7.97;;;;;;;12.12;81.69;68119.81;5041060;28;20079;-78
2022/04/22 08:42:14;;;;;;;11.15;8.60;;;;;;;12.16;81.76;68124.38;5043063;28;20037;-77
2022/04/22 08:44:40;;;;;;;10.82;7.78;;;;;;;12.27;81.44;68136.88;5044014;28;20094;-79
2022/04/22 08:49:59;;;;;;;13.15;8.82;;;;;;;12.61;80.01;68174.94;5040727;28;20035;-77
2022/04/22 08:52:26;;;;;;;11.18;7.68;;;;;;;12.58;79.78;68165.63;5043290;28;20033;-79
2022/04/22 08:54:53;;;;;;;15.73;8.63;;;;;;;12.72;80.56;68189.56;5024086;28;20033;-76
2022/04/22 08:57:23;;;;;;;12.52;8.43;;;;;;;12.88;79.06;68205.06;5021748;28;20056;-78
2022/04/22 08:59:49;;;;;;;13.85;7.78;;;;;;;13.01;78.21;68218.72;5022440;28;20045;-80
2022/04/22 09:02:18;;;;;;;13.80;8.60;;;;;;;13.11;77.38;68230.06;5019238;28;20548;-79
2022/04/22 09:04:43;;;;;;;;;;;;;;;;;;5019389;28;20062;-79
2022/04/22 09:07:13;;;;;;;11.93;7.15;;;;;;;13.09;77.22;68228.38;5022590;28;20189;-80
2022/04/22 09:09:40;;;;;;;10.48;8.10;;;;;;;13.27;77.65;68253.66;5026891;28;20046;-79
2022/04/22 09:12:11;;;;;;;11.80;7.32;;;;;;;13.56;76.17;68279.59;5008045;28;20044;-78
2022/04/22 09:14:46;;;;;;;11.65;8.25;;;;;;;13.50;75.39;68273.31;5027121;28;20133;-79
2022/04/22 09:17:26;;;;;;;9.82;8.38;;;;;;;13.57;75.00;68280.72;5024850;28;20041;-79
2022/04/22 09:19:53;;;;;;;12.63;8.13;;;;;;;;;;5030334;28;20045;-78
2022/04/22 09:22:20;;;;;;;12.25;7.78;;;;;;;13.85;73.99;68312.00;5051105;28;20053;-79
2022/04/22 09:24:46;;;;;;;9.20;6.18;;;;;;;13.97;74.08;68325.66;5049297;28;20037;-80
2022/04/22 09:27:13;;;;;;;10.10;8.55;;;;;;;;;;5050823;28;20100;-77
2022/04/22 09:29:54;;;;;;;10.75;6.70;;;;;;;;;;5049635;28;20051;-80
2022/04/22 09:32:31;;;;;;;11.23;6.80;;;;;;;14.14;73.63;68345.00;5033470;28;20045;-78
2022/04/22 09:35:06;;;;;;;12.73;7.07;;;;;;;14.27;72.18;68359.25;5036541;28;20033;-80
2022/04/22 09:42:59;;;;;;;9.55;7.75;;;;;;;14.36;71.59;68374.28;5049054;28;20073;-78
2022/04/22 09:45:40;;;;;;;10.32;6.65;;;;;;;14.51;69.96;68385.41;5053880;28;20049;-78
2022/04/22 09:48:20;;;;;;;10.27;6.75;;;;;;;14.53;70.34;68387.69;5048674;28;20037;-80
2022/04/22 09:50:45;;;;;;;10.70;6.63;;;;;;;14.50;70.30;68384.84;5049407;28;20064;-79
2022/04/22 09:53:12;;;;;;;11.88;6.63;;;;;;;14.65;70.02;68401.94;5039780;28;20049;-77
2022/04/22 09:55:49;;;;;;;11.50;6.97;;;;;;;14.63;68.34;68399.66;5040846;28;20044;-78
2022/04/22 09:58:24;;;;;;;10.60;6.88;;;;;;;;;;5038029;28;20037;-79
2022/04/22 10:01:02;;;;;;;9.60;6.65;;;;;;;14.88;69.46;68427.00;5019743;28;20041;-78
2022/04/22 10:03:29;;;;;;;8.23;5.75;;;;;;;15.12;69.19;68454.31;5037556;28;20053;-77
2022/04/22 10:05:56;;;;;;;9.93;5.70;;;;;;;15.37;68.04;68481.66;5047934;28;20499;-79
2022/04/22 10:08:22;;;;;;;10.55;6.10;;;;;;;;;;5049993;28;20049;-78
2022/04/22 10:10:51;;;;;;;7.80;5.85;;;;;;;15.06;64.86;68447.50;5046551;28;20037;-78
2022/04/22 10:13:17;;;;;;;9.63;5.57;;;;;;;;;;5019411;28;20184;-77
2022/04/22 10:15:45;;;;;;;8.75;6.20;;;;;;;15.28;65.10;68476.78;5042406;28;20533;-78
2022/04/22 10:18:13;;;;;;;9.68;6.05;;;;;;;15.30;65.26;68474.25;5035795;28;20114;-78
2022/04/22 10:20:38;;;;;;;6.57;5.10;;;;;;;;;;5043470;28;20068;-77
2022/04/22 10:23:04;;;;;;;13.35;5.80;;;;;;;15.42;64.16;68487.38;5036858;28;20041;-79
2022/04/22 10:25:30;;;;;;;13.40;5.25;;;;;;;15.68;65.12;68516.44;5023244;28;20064;-79
2022/04/22 10:27:57;;;;;;;11.18;5.53;;;;;;;15.53;60.66;68499.88;5039776;28;20124;-78
2022/04/22 10:30:24;;;;;;;7.50;5.40;;;;;;;15.75;63.47;68524.41;5037616;28;20057;-79
2022/04/22 10:32:50;;;;;;;8.35;4.63;;;;;;;15.69;60.46;68517.00;5044294;28;20048;-77
2022/04/22 10:35:15;;;;;;;9.60;5.43;;;;;;;15.77;62.15;68526.13;5045656;28;20041;-76
2022/04/22 10:37:44;;;;;;;7.75;4.97;;;;;;;15.67;60.58;68517.38;5029834;28;20056;-78
2022/04/22 10:40:23;;;;;;;7.85;5.30;;;;;;;15.55;60.61;68501.59;5031268;28;20415;-78
2022/04/22 10:42:49;;;;;;;7.65;4.90;;;;;;;;;;5046884;28;20033;-79
2022/04/22 10:48:01;;;;;;;11.30;5.30;;;;;;;;;;5050316;28;20091;-77
2022/04/22 10:50:37;;;;;;;10.63;5.60;;;;;;;15.97;59.83;68548.91;5043673;28;20044;-79
2022/04/22 10:53:25;;;;;;;7.93;4.80;;;;;;;15.99;59.45;68553.88;5047393;28;20647;-79
2022/04/22 10:55:51;;;;;;;7.07;4.90;;;;;;;;;;5025211;28;20045;-78
2022/04/22 10:58:20;;;;;;;8.50;5.75;;;;;;;16.07;58.82;68559.19;5045695;28;20037;-78
2022/04/22 11:00:50;;;;;;;9.77;5.13;;;;;;;;;;5046161;28;20037;-78
2022/04/22 11:03:19;;;;;;;9.05;4.95;;;;;;;16.41;57.34;68597.94;5033399;28;20053;-79
2022/04/22 11:05:57;;;;;;;7.63;5.18;;;;;;;16.70;57.24;68624.47;5045012;28;20068;-79
2022/04/22 11:08:29;;;;;;;8.83;4.37;;;;;;;16.88;55.87;68644.47;5044555;28;20600;-79
2022/04/22 11:10:54;;;;;;;10.63;4.70;;;;;;;17.12;54.54;68676.66;5044776;28;20299;-77
2022/04/22 11:13:46;;;;;;;7.30;4.13;;;;;;;17.08;52.92;68667.25;5048052;28;20087;-79
2022/04/22 11:16:11;;;;;;;8.63;4.28;;;;;;;;;;5043757;28;20271;-79
2022/04/22 11:18:41;;;;;;;8.80;4.45;;;;;;;17.07;53.58;68673.63;5048040;28;20091;-78
2022/04/22 11:21:15;;;;;;;8.35;4.47;;;;;;;17.10;54.68;68674.94;5046641;28;20599;-77
2022/04/22 11:23:44;;;;;;;12.63;4.05;;;;;;;17.27;54.37;68693.75;5046411;28;20045;-78
2022/04/22 11:26:11;;;;;;;7.25;4.35;;;;;;;;;;5041508;28;20086;-79
2022/04/22 11:28:38;;;;;;;7.00;4.15;;;;;;;17.62;52.61;68726.59;5032036;28;20051;-78
2022/04/22 11:31:10;;;;;;;7.70;4.20;;;;;;;17.64;52.88;68734.84;5045580;28;20044;-79
2022/04/22 11:33:53;;;;;;;6.57;4.55;;;;;;;;;;5045107;28;20052;-79
2022/04/22 11:36:19;;;;;;;7.80;4.53;;;;;;;17.05;54.31;68671.34;5041452;28;20049;-78
2022/04/22 11:38:55;;;;;;;8.45;4.57;;;;;;;17.36;55.18;68704.03;5044014;28;20721;-79
2022/04/22 11:41:24;;;;;;;7.40;4.72;;;;;;;17.36;53.04;68695.38;5042063;28;20049;-79
2022/04/22 11:43:50;;;;;;;;;;;;;;;17.19;53.95;68678.69;5044208;28;20534;-79
2022/04/22 11:46:17;;;;;;;8.50;4.93;;;;;;;17.27;52.41;68688.38;5043154;28;19929;-78
2022/04/22 11:48:45;;;;;;;10.07;4.60;;;;;;;;;;5044068;28;20036;-79
2022/04/22 11:51:11;;;;;;;7.85;4.32;;;;;;;17.24;51.49;68684.97;5042397;28;20033;-79
2022/04/22 11:53:37;;;;;;;8.88;5.50;;;;;;;17.21;51.77;68686.34;5041660;28;20799;-79
2022/04/22 11:56:04;;;;;;;7.13;4.80;;;;;;;;;;5041410;28;20044;-80
2022/04/22 11:58:29;;;;;;;6.32;4.70;;;;;;;;;;5043380;28;20079;-79
2022/04/22 12:06:23;;;;;;;7.90;4.95;;;;;;;17.52;49.70;68713.66;5048701;28;20462;-79
2022/04/22 12:08:56;;;;;;;8.63;5.43;;;;;;;17.42;50.53;68709.72;5046542;28;20124;-79
2022/04/22 12:11:23;;;;;;;6.72;4.90;;;;;;;17.18;51.67;68683.50;5042826;28;20075;-78
2022/04/22 12:13:49;;;;;;;6.85;4.95;;;;;;;17.19;51.77;68684.06;5042664;28;20063;-79
2022/04/22 12:16:21;;;;;;;8.88;5.65;;;;;;;17.00;53.08;68657.56;5044203;28;20071;-79
2022/04/22 12:18:51;;;;;;;7.05;4.88;;;;;;;16.86;53.22;68642.16;5043895;28;20045;-79
2022/04/22 12:21:18;;;;;;;7.90;5.18;;;;;;;16.97;53.09;68662.22;5043047;28;20571;-78
2022/04/22 12:23:44;;;;;;;8.50;4.95;;;;;;;;;;5044820;28;20041;-79
2022/04/22 12:26:21;;;;;;;7.65;4.57;;;;;;;16.65;52.40;68624.16;5043469;28;20041;-79
2022/04/22 12:29:09;;;;;;;7.65;5.30;;;;;;;;;;5042963;28;20487;-78
2022/04/22 12:31:38;;;;;;;8.00;5.10;;;;;;;16.37;54.88;68588.00;5035749;28;20053;-78
2022/04/22 12:34:06;;;;;;;7.55;5.38;;;;;;;16.27;55.09;68581.97;5045880;28;20041;-79
2022/04/22 12:36:36;;;;;;;9.73;5.57;;;;;;;;;;5045871;28;20495;-77